sensor_id;sensor_type;location;lat;lon;timestamp;temperature;humidity
9151;DHT22;4610;50.006;7.490;2023-02-19T00:01:40;8.40;99.90
9151;DHT22;4610;50.006;7.490;2023-02-19T00:04:10;8.40;99.90
9151;DHT22;4610;50.006;7.490;2023-02-19T00:06:38;8.40;99.90
9151;DHT22;4610;50.006;7.490;2023-02-19T00:09:05;8.40;99.90
9151;DHT22;4610;50.006;7.490;2023-02-19T00:11:34;8.30;99.90
9151;DHT22;4610;50.006;7.490;2023-02-19T00:14:01;8.30;99.90
9151;DHT22;4610;50.006;7.490;2023-02-19T00:16:30;8.20;99.90
9151;DHT22;4610;50.006;7.490;2023-02-19T00:18:58;8.30;99.90
9151;DHT22;4610;50.006;7.490;2023-02-19T00:21:26;8.30;99.90
9151;DHT22;4610;50.006;7.490;2023-02-19T00:23:54;8.40;99.90
9151;DHT22;4610;50.006;7.490;2023-02-19T00:26:22;8.40;99.90
9151;DHT22;4610;50.006;7.490;2023-02-19T00:28:51;8.40;99.90
9151;DHT22;4610;50.006;7.490;2023-02-19T00:31:20;8.40;99.90
9151;DHT22;4610;50.006;7.490;2023-02-19T00:33:49;8.40;99.90
9151;DHT22;4610;50.006;7.490;2023-02-19T00:36:16;8.30;99.90
9151;DHT22;4610;50.006;7.490;2023-02-19T00:38:44;8.30;99.90
9151;DHT22;4610;50.006;7.490;2023-02-19T00:41:11;8.30;99.90
9151;DHT22;4610;50.006;7.490;2023-02-19T00:43:48;8.30;99.90
9151;DHT22;4610;50.006;7.490;2023-02-19T00:46:18;8.30;99.90
9151;DHT22;4610;50.006;7.490;2023-02-19T00:48:45;8.30;99.90
9151;DHT22;4610;50.006;7.490;2023-02-19T00:51:12;8.40;99.90
9151;DHT22;4610;50.006;7.490;2023-02-19T00:53:39;8.40;99.90
9151;DHT22;4610;50.006;7.490;2023-02-19T00:56:06;8.40;99.90
9151;DHT22;4610;50.006;7.490;2023-02-19T00:58:33;8.40;99.90
9151;DHT22;4610;50.006;7.490;2023-02-19T01:01:00;8.30;99.90
9151;DHT22;4610;50.006;7.490;2023-02-19T01:03:29;8.30;99.90
9151;DHT22;4610;50.006;7.490;2023-02-19T01:05:55;8.30;99.90
9151;DHT22;4610;50.006;7.490;2023-02-19T01:08:22;8.30;99.90
9151;DHT22;4610;50.006;7.490;2023-02-19T01:10:49;8.40;99.90
9151;DHT22;4610;50.006;7.490;2023-02-19T01:13:16;8.40;99.90
9151;DHT22;4610;50.006;7.490;2023-02-19T01:15:43;8.50;99.90
9151;DHT22;4610;50.006;7.490;2023-02-19T01:18:10;8.50;99.90
9151;DHT22;4610;50.006;7.490;2023-02-19T01:20:39;8.50;99.90
9151;DHT22;4610;50.006;7.490;2023-02-19T01:23:07;8.50;99.90
9151;DHT22;4610;50.006;7.490;2023-02-19T01:25:34;8.40;99.90
9151;DHT22;4610;50.006;7.490;2023-02-19T01:28:03;8.40;99.90
9151;DHT22;4610;50.006;7.490;2023-02-19T01:30:30;8.30;99.90
9151;DHT22;4610;50.006;7.490;2023-02-19T01:32:59;8.30;99.90
9151;DHT22;4610;50.006;7.490;2023-02-19T01:35:25;8.40;99.90
9151;DHT22;4610;50.006;7.490;2023-02-19T01:37:54;8.40;99.90
9151;DHT22;4610;50.006;7.490;2023-02-19T01:40:20;8.40;99.90
9151;DHT22;4610;50.006;7.490;2023-02-19T01:42:47;8.40;99.90
9151;DHT22;4610;50.006;7.490;2023-02-19T01:45:26;8.40;99.90
9151;DHT22;4610;50.006;7.490;2023-02-19T01:48:06;8.30;99.90
9151;DHT22;4610;50.006;7.490;2023-02-19T01:50:37;8.30;99.90
9151;DHT22;4610;50.006;7.490;2023-02-19T01:53:06;8.30;99.90
9151;DHT22;4610;50.006;7.490;2023-02-19T01:55:35;8.30;99.90
9151;DHT22;4610;50.006;7.490;2023-02-19T01:58:03;8.40;99.90
9151;DHT22;4610;50.006;7.490;2023-02-19T02:00:31;8.40;99.90
9151;DHT22;4610;50.006;7.490;2023-02-19T02:02:59;8.40;99.90
9151;DHT22;4610;50.006;7.490;2023-02-19T02:05:37;8.40;99.90
9151;DHT22;4610;50.006;7.490;2023-02-19T02:08:09;8.40;99.90
9151;DHT22;4610;50.006;7.490;2023-02-19T02:10:54;8.30;99.90
9151;DHT22;4610;50.006;7.490;2023-02-19T02:13:21;8.30;99.90
9151;DHT22;4610;50.006;7.490;2023-02-19T02:15:53;8.30;99.90
9151;DHT22;4610;50.006;7.490;2023-02-19T02:18:30;8.30;99.90
9151;DHT22;4610;50.006;7.490;2023-02-19T02:21:32;8.30;99.90
9151;DHT22;4610;50.006;7.490;2023-02-19T02:24:11;8.30;99.90
9151;DHT22;4610;50.006;7.490;2023-02-19T02:26:54;8.40;99.90
9151;DHT22;4610;50.006;7.490;2023-02-19T02:32:35;8.30;99.90
9151;DHT22;4610;50.006;7.490;2023-02-19T02:35:07;8.30;99.90
9151;DHT22;4610;50.006;7.490;2023-02-19T02:37:37;8.30;99.90
9151;DHT22;4610;50.006;7.490;2023-02-19T02:40:07;8.30;99.90
9151;DHT22;4610;50.006;7.490;2023-02-19T02:42:34;8.40;99.90
9151;DHT22;4610;50.006;7.490;2023-02-19T02:45:24;8.40;99.90
9151;DHT22;4610;50.006;7.490;2023-02-19T02:48:08;8.40;99.90
9151;DHT22;4610;50.006;7.490;2023-02-19T02:50:41;8.40;99.90
9151;DHT22;4610;50.006;7.490;2023-02-19T02:53:12;8.40;99.90
9151;DHT22;4610;50.006;7.490;2023-02-19T02:55:57;8.30;99.90
9151;DHT22;4610;50.006;7.490;2023-02-19T02:58:26;8.20;99.90
9151;DHT22;4610;50.006;7.490;2023-02-19T03:00:56;8.20;99.90
9151;DHT22;4610;50.006;7.490;2023-02-19T03:03:46;8.20;99.90
9151;DHT22;4610;50.006;7.490;2023-02-19T03:06:16;8.20;99.90
9151;DHT22;4610;50.006;7.490;2023-02-19T03:08:47;8.20;99.90
9151;DHT22;4610;50.006;7.490;2023-02-19T03:11:14;8.20;99.90
9151;DHT22;4610;50.006;7.490;2023-02-19T03:14:03;8.20;99.90
9151;DHT22;4610;50.006;7.490;2023-02-19T03:16:50;8.20;99.90
9151;DHT22;4610;50.006;7.490;2023-02-19T03:19:41;8.20;99.90
9151;DHT22;4610;50.006;7.490;2023-02-19T03:22:13;8.20;99.90
9151;DHT22;4610;50.006;7.490;2023-02-19T03:24:44;8.20;99.90
9151;DHT22;4610;50.006;7.490;2023-02-19T03:27:31;8.20;99.90
9151;DHT22;4610;50.006;7.490;2023-02-19T03:30:04;8.20;99.90
9151;DHT22;4610;50.006;7.490;2023-02-19T03:32:36;8.20;99.90
9151;DHT22;4610;50.006;7.490;2023-02-19T03:35:10;8.20;99.90
9151;DHT22;4610;50.006;7.490;2023-02-19T03:37:40;8.20;99.90
9151;DHT22;4610;50.006;7.490;2023-02-19T03:40:09;8.20;99.90
9151;DHT22;4610;50.006;7.490;2023-02-19T03:42:42;8.20;99.90
9151;DHT22;4610;50.006;7.490;2023-02-19T03:45:26;8.20;99.90
9151;DHT22;4610;50.006;7.490;2023-02-19T03:48:05;8.20;99.90
9151;DHT22;4610;50.006;7.490;2023-02-19T03:50:42;8.20;99.90
9151;DHT22;4610;50.006;7.490;2023-02-19T03:53:16;8.20;99.90
9151;DHT22;4610;50.006;7.490;2023-02-19T03:55:53;8.10;99.90
9151;DHT22;4610;50.006;7.490;2023-02-19T03:58:27;8.20;99.90
9151;DHT22;4610;50.006;7.490;2023-02-19T04:01:01;8.20;99.90
9151;DHT22;4610;50.006;7.490;2023-02-19T04:03:35;8.20;99.90
9151;DHT22;4610;50.006;7.490;2023-02-19T04:06:08;8.10;99.90
9151;DHT22;4610;50.006;7.490;2023-02-19T04:08:38;8.20;99.90
9151;DHT22;4610;50.006;7.490;2023-02-19T04:11:07;8.20;99.90
9151;DHT22;4610;50.006;7.490;2023-02-19T04:13:36;8.20;99.90
9151;DHT22;4610;50.006;7.490;2023-02-19T04:16:07;8.10;99.90
9151;DHT22;4610;50.006;7.490;2023-02-19T04:18:37;8.10;99.90
9151;DHT22;4610;50.006;7.490;2023-02-19T04:21:06;8.10;99.90
9151;DHT22;4610;50.006;7.490;2023-02-19T04:23:38;8.10;99.90
9151;DHT22;4610;50.006;7.490;2023-02-19T04:26:07;8.10;99.90
9151;DHT22;4610;50.006;7.490;2023-02-19T04:28:35;8.10;99.90
9151;DHT22;4610;50.006;7.490;2023-02-19T04:31:03;8.10;99.90
9151;DHT22;4610;50.006;7.490;2023-02-19T04:33:30;8.10;99.90
9151;DHT22;4610;50.006;7.490;2023-02-19T04:35:56;8.00;99.90
9151;DHT22;4610;50.006;7.490;2023-02-19T04:38:24;8.00;99.90
9151;DHT22;4610;50.006;7.490;2023-02-19T04:40:51;8.00;99.90
9151;DHT22;4610;50.006;7.490;2023-02-19T04:43:18;8.00;99.90
9151;DHT22;4610;50.006;7.490;2023-02-19T04:45:45;8.00;99.90
9151;DHT22;4610;50.006;7.490;2023-02-19T04:48:12;8.10;99.90
9151;DHT22;4610;50.006;7.490;2023-02-19T04:50:39;8.00;99.90
9151;DHT22;4610;50.006;7.490;2023-02-19T04:53:06;8.00;99.90
9151;DHT22;4610;50.006;7.490;2023-02-19T04:55:37;7.90;99.90
9151;DHT22;4610;50.006;7.490;2023-02-19T04:58:04;7.90;99.90
9151;DHT22;4610;50.006;7.490;2023-02-19T05:00:30;7.90;99.90
9151;DHT22;4610;50.006;7.490;2023-02-19T05:02:58;7.90;99.90
9151;DHT22;4610;50.006;7.490;2023-02-19T05:05:25;7.90;99.90
9151;DHT22;4610;50.006;7.490;2023-02-19T05:07:52;7.90;99.90
9151;DHT22;4610;50.006;7.490;2023-02-19T05:10:19;7.90;99.90
9151;DHT22;4610;50.006;7.490;2023-02-19T05:12:47;7.90;99.90
9151;DHT22;4610;50.006;7.490;2023-02-19T05:15:14;7.90;99.90
9151;DHT22;4610;50.006;7.490;2023-02-19T05:17:41;7.80;99.90
9151;DHT22;4610;50.006;7.490;2023-02-19T05:20:08;7.90;99.90
9151;DHT22;4610;50.006;7.490;2023-02-19T05:22:35;7.90;99.90
9151;DHT22;4610;50.006;7.490;2023-02-19T05:25:02;7.80;99.90
9151;DHT22;4610;50.006;7.490;2023-02-19T05:27:29;7.90;99.90
9151;DHT22;4610;50.006;7.490;2023-02-19T05:29:58;7.80;99.90
9151;DHT22;4610;50.006;7.490;2023-02-19T05:32:24;7.90;99.90
9151;DHT22;4610;50.006;7.490;2023-02-19T05:34:51;7.90;99.90
9151;DHT22;4610;50.006;7.490;2023-02-19T05:37:18;7.90;99.90
9151;DHT22;4610;50.006;7.490;2023-02-19T05:39:45;7.80;99.90
9151;DHT22;4610;50.006;7.490;2023-02-19T05:42:12;7.80;99.90
9151;DHT22;4610;50.006;7.490;2023-02-19T05:44:39;7.80;99.90
9151;DHT22;4610;50.006;7.490;2023-02-19T05:47:07;7.90;99.90
9151;DHT22;4610;50.006;7.490;2023-02-19T05:49:34;7.80;99.90
9151;DHT22;4610;50.006;7.490;2023-02-19T05:52:01;7.80;99.90
9151;DHT22;4610;50.006;7.490;2023-02-19T05:54:28;7.80;99.90
9151;DHT22;4610;50.006;7.490;2023-02-19T05:56:55;7.80;99.90
9151;DHT22;4610;50.006;7.490;2023-02-19T05:59:24;7.70;99.90
9151;DHT22;4610;50.006;7.490;2023-02-19T06:01:52;7.70;99.90
9151;DHT22;4610;50.006;7.490;2023-02-19T06:04:21;7.80;99.90
9151;DHT22;4610;50.006;7.490;2023-02-19T06:06:48;7.70;99.90
9151;DHT22;4610;50.006;7.490;2023-02-19T06:09:15;7.70;99.90
9151;DHT22;4610;50.006;7.490;2023-02-19T06:11:42;7.70;99.90
9151;DHT22;4610;50.006;7.490;2023-02-19T06:14:11;7.80;99.90
9151;DHT22;4610;50.006;7.490;2023-02-19T06:16:38;7.80;99.90
9151;DHT22;4610;50.006;7.490;2023-02-19T06:19:05;7.70;99.90
9151;DHT22;4610;50.006;7.490;2023-02-19T06:21:33;7.80;99.90
9151;DHT22;4610;50.006;7.490;2023-02-19T06:24:04;7.70;99.90
9151;DHT22;4610;50.006;7.490;2023-02-19T06:26:30;7.80;99.90
9151;DHT22;4610;50.006;7.490;2023-02-19T06:28:57;7.80;99.90
9151;DHT22;4610;50.006;7.490;2023-02-19T06:31:24;7.80;99.90
9151;DHT22;4610;50.006;7.490;2023-02-19T06:33:51;7.80;99.90
9151;DHT22;4610;50.006;7.490;2023-02-19T06:36:20;7.80;99.90
9151;DHT22;4610;50.006;7.490;2023-02-19T06:38:49;7.80;99.90
9151;DHT22;4610;50.006;7.490;2023-02-19T06:41:16;7.80;99.90
9151;DHT22;4610;50.006;7.490;2023-02-19T06:43:43;7.70;99.90
9151;DHT22;4610;50.006;7.490;2023-02-19T06:46:11;7.70;99.90
9151;DHT22;4610;50.006;7.490;2023-02-19T06:48:39;7.70;99.90
9151;DHT22;4610;50.006;7.490;2023-02-19T06:51:10;7.70;99.90
9151;DHT22;4610;50.006;7.490;2023-02-19T06:53:37;7.70;99.90
9151;DHT22;4610;50.006;7.490;2023-02-19T06:56:07;7.70;99.90
9151;DHT22;4610;50.006;7.490;2023-02-19T06:58:45;7.70;99.90
9151;DHT22;4610;50.006;7.490;2023-02-19T07:01:12;7.80;99.90
9151;DHT22;4610;50.006;7.490;2023-02-19T07:03:39;7.80;99.90
9151;DHT22;4610;50.006;7.490;2023-02-19T07:06:06;7.70;99.90
9151;DHT22;4610;50.006;7.490;2023-02-19T07:08:33;7.70;99.90
9151;DHT22;4610;50.006;7.490;2023-02-19T07:11:00;7.60;99.90
9151;DHT22;4610;50.006;7.490;2023-02-19T07:13:28;7.60;99.90
9151;DHT22;4610;50.006;7.490;2023-02-19T07:15:58;7.60;99.90
9151;DHT22;4610;50.006;7.490;2023-02-19T07:18:25;7.70;99.90
9151;DHT22;4610;50.006;7.490;2023-02-19T07:20:52;7.70;99.90
9151;DHT22;4610;50.006;7.490;2023-02-19T07:23:18;7.80;99.90
9151;DHT22;4610;50.006;7.490;2023-02-19T07:25:45;7.80;99.90
9151;DHT22;4610;50.006;7.490;2023-02-19T07:28:12;7.80;99.90
9151;DHT22;4610;50.006;7.490;2023-02-19T07:30:40;7.80;99.90
9151;DHT22;4610;50.006;7.490;2023-02-19T07:33:07;7.80;99.90
9151;DHT22;4610;50.006;7.490;2023-02-19T07:35:35;7.90;99.90
9151;DHT22;4610;50.006;7.490;2023-02-19T07:38:02;8.00;99.90
9151;DHT22;4610;50.006;7.490;2023-02-19T07:40:29;8.00;99.90
9151;DHT22;4610;50.006;7.490;2023-02-19T07:42:58;8.00;99.90
9151;DHT22;4610;50.006;7.490;2023-02-19T07:45:25;8.00;99.90
9151;DHT22;4610;50.006;7.490;2023-02-19T07:47:53;8.00;99.90
9151;DHT22;4610;50.006;7.490;2023-02-19T07:50:19;7.90;99.90
9151;DHT22;4610;50.006;7.490;2023-02-19T07:52:46;8.00;99.90
9151;DHT22;4610;50.006;7.490;2023-02-19T07:55:13;8.00;99.90
9151;DHT22;4610;50.006;7.490;2023-02-19T07:57:40;8.00;99.90
9151;DHT22;4610;50.006;7.490;2023-02-19T08:00:07;8.00;99.90
9151;DHT22;4610;50.006;7.490;2023-02-19T08:02:34;8.00;99.90
9151;DHT22;4610;50.006;7.490;2023-02-19T08:05:20;8.00;99.90
9151;DHT22;4610;50.006;7.490;2023-02-19T08:07:46;8.00;99.90
9151;DHT22;4610;50.006;7.490;2023-02-19T08:10:13;8.00;99.90
9151;DHT22;4610;50.006;7.490;2023-02-19T08:12:59;8.10;99.90
9151;DHT22;4610;50.006;7.490;2023-02-19T08:15:43;8.10;99.90
9151;DHT22;4610;50.006;7.490;2023-02-19T08:18:11;8.20;99.90
9151;DHT22;4610;50.006;7.490;2023-02-19T08:20:40;8.30;99.90
9151;DHT22;4610;50.006;7.490;2023-02-19T08:23:07;8.30;99.90
9151;DHT22;4610;50.006;7.490;2023-02-19T08:25:34;8.30;99.90
9151;DHT22;4610;50.006;7.490;2023-02-19T08:28:01;8.40;99.90
9151;DHT22;4610;50.006;7.490;2023-02-19T08:30:29;8.40;99.90
9151;DHT22;4610;50.006;7.490;2023-02-19T08:32:57;8.50;99.90
9151;DHT22;4610;50.006;7.490;2023-02-19T08:35:24;8.50;99.90
9151;DHT22;4610;50.006;7.490;2023-02-19T08:37:54;8.60;99.90
9151;DHT22;4610;50.006;7.490;2023-02-19T08:40:21;8.70;99.90
9151;DHT22;4610;50.006;7.490;2023-02-19T08:42:48;8.70;99.90
9151;DHT22;4610;50.006;7.490;2023-02-19T08:45:15;8.80;99.90
9151;DHT22;4610;50.006;7.490;2023-02-19T08:47:41;8.80;99.90
9151;DHT22;4610;50.006;7.490;2023-02-19T08:50:08;8.90;99.90
9151;DHT22;4610;50.006;7.490;2023-02-19T08:52:35;9.00;99.90
9151;DHT22;4610;50.006;7.490;2023-02-19T08:55:04;9.10;99.90
9151;DHT22;4610;50.006;7.490;2023-02-19T08:57:33;9.20;99.90
9151;DHT22;4610;50.006;7.490;2023-02-19T09:00:03;9.30;99.90
9151;DHT22;4610;50.006;7.490;2023-02-19T09:02:30;9.40;99.90
9151;DHT22;4610;50.006;7.490;2023-02-19T09:04:57;9.50;99.90
9151;DHT22;4610;50.006;7.490;2023-02-19T09:07:24;9.50;99.90
9151;DHT22;4610;50.006;7.490;2023-02-19T09:09:51;9.40;99.90
9151;DHT22;4610;50.006;7.490;2023-02-19T09:12:19;9.70;99.90
9151;DHT22;4610;50.006;7.490;2023-02-19T09:14:46;9.90;99.90
9151;DHT22;4610;50.006;7.490;2023-02-19T09:17:13;9.90;99.90
9151;DHT22;4610;50.006;7.490;2023-02-19T09:19:40;10.00;99.90
9151;DHT22;4610;50.006;7.490;2023-02-19T09:22:06;9.90;99.90
9151;DHT22;4610;50.006;7.490;2023-02-19T09:24:33;9.80;99.90
9151;DHT22;4610;50.006;7.490;2023-02-19T09:27:00;9.60;99.90
9151;DHT22;4610;50.006;7.490;2023-02-19T09:29:28;9.50;99.90
9151;DHT22;4610;50.006;7.490;2023-02-19T09:31:55;9.40;99.90
9151;DHT22;4610;50.006;7.490;2023-02-19T09:34:23;9.30;99.90
9151;DHT22;4610;50.006;7.490;2023-02-19T09:36:51;9.40;99.90
9151;DHT22;4610;50.006;7.490;2023-02-19T09:39:18;9.40;99.90
9151;DHT22;4610;50.006;7.490;2023-02-19T09:41:47;9.30;99.90
9151;DHT22;4610;50.006;7.490;2023-02-19T09:44:22;9.30;99.90
9151;DHT22;4610;50.006;7.490;2023-02-19T09:46:52;9.40;99.90
9151;DHT22;4610;50.006;7.490;2023-02-19T09:49:21;9.50;99.90
9151;DHT22;4610;50.006;7.490;2023-02-19T09:51:52;9.50;99.90
9151;DHT22;4610;50.006;7.490;2023-02-19T09:54:22;9.40;99.90
9151;DHT22;4610;50.006;7.490;2023-02-19T09:56:51;9.40;99.90
9151;DHT22;4610;50.006;7.490;2023-02-19T09:59:20;9.40;99.90
9151;DHT22;4610;50.006;7.490;2023-02-19T10:01:54;9.40;99.90
9151;DHT22;4610;50.006;7.490;2023-02-19T10:04:22;9.30;99.90
9151;DHT22;4610;50.006;7.490;2023-02-19T10:06:50;9.30;99.90
9151;DHT22;4610;50.006;7.490;2023-02-19T10:09:21;9.20;99.90
9151;DHT22;4610;50.006;7.490;2023-02-19T10:11:48;9.30;99.90
9151;DHT22;4610;50.006;7.490;2023-02-19T10:14:19;9.60;99.90
9151;DHT22;4610;50.006;7.490;2023-02-19T10:16:50;9.70;99.90
9151;DHT22;4610;50.006;7.490;2023-02-19T10:19:19;9.70;99.90
9151;DHT22;4610;50.006;7.490;2023-02-19T10:21:46;9.70;99.90
9151;DHT22;4610;50.006;7.490;2023-02-19T10:24:18;9.70;99.90
9151;DHT22;4610;50.006;7.490;2023-02-19T10:26:45;9.80;99.90
9151;DHT22;4610;50.006;7.490;2023-02-19T10:29:12;9.80;99.90
9151;DHT22;4610;50.006;7.490;2023-02-19T10:31:39;9.90;99.90
9151;DHT22;4610;50.006;7.490;2023-02-19T10:34:16;10.00;99.90
9151;DHT22;4610;50.006;7.490;2023-02-19T10:36:46;10.00;99.90
9151;DHT22;4610;50.006;7.490;2023-02-19T10:39:30;10.00;99.90
9151;DHT22;4610;50.006;7.490;2023-02-19T10:41:59;10.00;99.90
9151;DHT22;4610;50.006;7.490;2023-02-19T10:44:27;9.90;99.90
9151;DHT22;4610;50.006;7.490;2023-02-19T10:46:57;9.90;99.90
9151;DHT22;4610;50.006;7.490;2023-02-19T10:49:27;9.80;99.90
9151;DHT22;4610;50.006;7.490;2023-02-19T10:51:58;9.80;99.90
9151;DHT22;4610;50.006;7.490;2023-02-19T10:54:28;9.90;99.90
9151;DHT22;4610;50.006;7.490;2023-02-19T10:57:15;9.80;99.90
9151;DHT22;4610;50.006;7.490;2023-02-19T10:59:51;9.80;99.90
9151;DHT22;4610;50.006;7.490;2023-02-19T11:02:20;9.90;99.90
9151;DHT22;4610;50.006;7.490;2023-02-19T11:05:08;10.00;99.90
9151;DHT22;4610;50.006;7.490;2023-02-19T11:07:46;9.90;99.90
9151;DHT22;4610;50.006;7.490;2023-02-19T11:10:23;9.90;99.90
9151;DHT22;4610;50.006;7.490;2023-02-19T11:12:52;9.90;99.90
9151;DHT22;4610;50.006;7.490;2023-02-19T11:15:21;10.00;99.90
9151;DHT22;4610;50.006;7.490;2023-02-19T11:17:57;10.10;99.90
9151;DHT22;4610;50.006;7.490;2023-02-19T11:20:25;10.50;99.90
9151;DHT22;4610;50.006;7.490;2023-02-19T11:22:57;10.80;99.90
9151;DHT22;4610;50.006;7.490;2023-02-19T11:25:26;11.20;99.90
9151;DHT22;4610;50.006;7.490;2023-02-19T11:27:58;11.30;99.90
9151;DHT22;4610;50.006;7.490;2023-02-19T11:30:38;11.40;99.90
9151;DHT22;4610;50.006;7.490;2023-02-19T11:33:26;11.40;99.90
9151;DHT22;4610;50.006;7.490;2023-02-19T11:36:03;11.20;99.90
9151;DHT22;4610;50.006;7.490;2023-02-19T11:38:44;10.90;99.90
9151;DHT22;4610;50.006;7.490;2023-02-19T11:41:17;10.80;99.90
9151;DHT22;4610;50.006;7.490;2023-02-19T11:44:01;10.80;99.90
9151;DHT22;4610;50.006;7.490;2023-02-19T11:46:36;10.80;99.90
9151;DHT22;4610;50.006;7.490;2023-02-19T11:49:16;10.70;99.90
9151;DHT22;4610;50.006;7.490;2023-02-19T11:52:03;10.50;99.90
9151;DHT22;4610;50.006;7.490;2023-02-19T11:54:43;10.60;99.90
9151;DHT22;4610;50.006;7.490;2023-02-19T11:57:33;10.70;99.90
9151;DHT22;4610;50.006;7.490;2023-02-19T12:00:17;10.70;99.90
9151;DHT22;4610;50.006;7.490;2023-02-19T12:03:13;10.60;99.90
9151;DHT22;4610;50.006;7.490;2023-02-19T12:06:03;10.70;99.90
9151;DHT22;4610;50.006;7.490;2023-02-19T12:08:46;10.80;99.90
9151;DHT22;4610;50.006;7.490;2023-02-19T12:11:35;10.60;99.90
9151;DHT22;4610;50.006;7.490;2023-02-19T12:14:21;10.70;99.90
9151;DHT22;4610;50.006;7.490;2023-02-19T12:16:55;10.80;99.90
9151;DHT22;4610;50.006;7.490;2023-02-19T12:19:43;10.80;99.90
9151;DHT22;4610;50.006;7.490;2023-02-19T12:22:19;10.70;99.90
9151;DHT22;4610;50.006;7.490;2023-02-19T12:25:17;10.60;99.90
9151;DHT22;4610;50.006;7.490;2023-02-19T12:28:01;10.60;99.90
9151;DHT22;4610;50.006;7.490;2023-02-19T12:30:49;10.50;99.90
9151;DHT22;4610;50.006;7.490;2023-02-19T12:33:53;10.30;99.90
9151;DHT22;4610;50.006;7.490;2023-02-19T12:36:28;10.20;99.90
9151;DHT22;4610;50.006;7.490;2023-02-19T12:39:04;10.20;99.90
9151;DHT22;4610;50.006;7.490;2023-02-19T12:41:39;10.20;99.90
9151;DHT22;4610;50.006;7.490;2023-02-19T12:44:14;10.40;99.90
9151;DHT22;4610;50.006;7.490;2023-02-19T12:46:46;10.50;99.90
9151;DHT22;4610;50.006;7.490;2023-02-19T12:49:20;10.70;99.90
9151;DHT22;4610;50.006;7.490;2023-02-19T12:51:51;10.80;99.90
9151;DHT22;4610;50.006;7.490;2023-02-19T12:54:26;10.90;99.90
9151;DHT22;4610;50.006;7.490;2023-02-19T12:56:58;11.00;99.90
9151;DHT22;4610;50.006;7.490;2023-02-19T12:59:30;10.90;99.90
9151;DHT22;4610;50.006;7.490;2023-02-19T13:02:03;10.90;99.90
9151;DHT22;4610;50.006;7.490;2023-02-19T13:04:38;11.00;99.90
9151;DHT22;4610;50.006;7.490;2023-02-19T13:07:11;11.10;99.90
9151;DHT22;4610;50.006;7.490;2023-02-19T13:09:40;11.10;99.90
9151;DHT22;4610;50.006;7.490;2023-02-19T13:12:12;11.20;99.90
9151;DHT22;4610;50.006;7.490;2023-02-19T13:14:44;11.10;99.90
9151;DHT22;4610;50.006;7.490;2023-02-19T13:17:21;10.90;99.90
9151;DHT22;4610;50.006;7.490;2023-02-19T13:19:52;10.80;99.90
9151;DHT22;4610;50.006;7.490;2023-02-19T13:22:26;10.70;99.90
9151;DHT22;4610;50.006;7.490;2023-02-19T13:25:14;10.70;99.90
9151;DHT22;4610;50.006;7.490;2023-02-19T13:27:56;10.70;99.90
9151;DHT22;4610;50.006;7.490;2023-02-19T13:30:52;10.60;99.90
9151;DHT22;4610;50.006;7.490;2023-02-19T13:33:35;10.70;99.90
9151;DHT22;4610;50.006;7.490;2023-02-19T13:36:11;10.70;99.90
9151;DHT22;4610;50.006;7.490;2023-02-19T13:38:43;10.60;99.90
9151;DHT22;4610;50.006;7.490;2023-02-19T13:41:25;10.60;99.90
9151;DHT22;4610;50.006;7.490;2023-02-19T13:43:55;10.70;99.90
9151;DHT22;4610;50.006;7.490;2023-02-19T13:46:36;10.80;99.90
9151;DHT22;4610;50.006;7.490;2023-02-19T13:49:23;10.80;99.90
9151;DHT22;4610;50.006;7.490;2023-02-19T13:51:51;10.90;99.90
9151;DHT22;4610;50.006;7.490;2023-02-19T13:54:23;10.90;99.90
9151;DHT22;4610;50.006;7.490;2023-02-19T13:57:19;10.90;99.90
9151;DHT22;4610;50.006;7.490;2023-02-19T13:59:50;10.80;99.90
9151;DHT22;4610;50.006;7.490;2023-02-19T14:02:30;10.80;99.90
9151;DHT22;4610;50.006;7.490;2023-02-19T14:04:59;10.80;99.90
9151;DHT22;4610;50.006;7.490;2023-02-19T14:13:54;10.40;99.90
9151;DHT22;4610;50.006;7.490;2023-02-19T14:16:50;10.30;99.90
9151;DHT22;4610;50.006;7.490;2023-02-19T14:19:45;10.20;99.90
9151;DHT22;4610;50.006;7.490;2023-02-19T14:22:48;10.00;99.90
9151;DHT22;4610;50.006;7.490;2023-02-19T14:25:36;10.00;99.90
9151;DHT22;4610;50.006;7.490;2023-02-19T14:28:17;10.00;99.90
9151;DHT22;4610;50.006;7.490;2023-02-19T14:30:48;10.10;99.90
9151;DHT22;4610;50.006;7.490;2023-02-19T14:33:18;10.00;99.90
9151;DHT22;4610;50.006;7.490;2023-02-19T14:35:51;10.00;99.90
9151;DHT22;4610;50.006;7.490;2023-02-19T14:38:21;9.90;99.90
9151;DHT22;4610;50.006;7.490;2023-02-19T14:40:49;9.80;99.90
9151;DHT22;4610;50.006;7.490;2023-02-19T14:43:19;9.80;99.90
9151;DHT22;4610;50.006;7.490;2023-02-19T14:45:48;9.70;99.90
9151;DHT22;4610;50.006;7.490;2023-02-19T14:48:19;9.80;99.90
9151;DHT22;4610;50.006;7.490;2023-02-19T14:50:50;9.80;99.90
9151;DHT22;4610;50.006;7.490;2023-02-19T14:53:19;9.80;99.90
9151;DHT22;4610;50.006;7.490;2023-02-19T14:55:48;9.80;99.90
9151;DHT22;4610;50.006;7.490;2023-02-19T14:58:19;9.80;99.90
9151;DHT22;4610;50.006;7.490;2023-02-19T15:00:46;9.80;99.90
9151;DHT22;4610;50.006;7.490;2023-02-19T15:03:31;9.90;99.90
9151;DHT22;4610;50.006;7.490;2023-02-19T15:06:02;9.90;99.90
9151;DHT22;4610;50.006;7.490;2023-02-19T15:08:36;9.80;99.90
9151;DHT22;4610;50.006;7.490;2023-02-19T15:11:07;9.70;99.90
9151;DHT22;4610;50.006;7.490;2023-02-19T15:13:35;9.70;99.90
9151;DHT22;4610;50.006;7.490;2023-02-19T15:16:02;9.60;99.90
9151;DHT22;4610;50.006;7.490;2023-02-19T15:18:29;9.60;99.90
9151;DHT22;4610;50.006;7.490;2023-02-19T15:21:03;9.50;99.90
9151;DHT22;4610;50.006;7.490;2023-02-19T15:23:31;9.50;99.90
9151;DHT22;4610;50.006;7.490;2023-02-19T15:26:00;9.40;99.90
9151;DHT22;4610;50.006;7.490;2023-02-19T15:28:32;9.40;99.90
9151;DHT22;4610;50.006;7.490;2023-02-19T15:31:11;9.20;99.90
9151;DHT22;4610;50.006;7.490;2023-02-19T15:33:39;9.10;99.90
9151;DHT22;4610;50.006;7.490;2023-02-19T15:36:08;9.10;99.90
9151;DHT22;4610;50.006;7.490;2023-02-19T15:38:35;9.00;99.90
9151;DHT22;4610;50.006;7.490;2023-02-19T15:41:02;9.00;99.90
9151;DHT22;4610;50.006;7.490;2023-02-19T15:43:33;9.00;99.90
9151;DHT22;4610;50.006;7.490;2023-02-19T15:46:05;8.90;99.90
9151;DHT22;4610;50.006;7.490;2023-02-19T15:48:39;8.80;99.90
9151;DHT22;4610;50.006;7.490;2023-02-19T15:51:13;8.80;99.90
9151;DHT22;4610;50.006;7.490;2023-02-19T15:53:44;8.80;99.90
9151;DHT22;4610;50.006;7.490;2023-02-19T15:56:16;8.90;99.90
9151;DHT22;4610;50.006;7.490;2023-02-19T15:58:48;8.90;99.90
9151;DHT22;4610;50.006;7.490;2023-02-19T16:01:19;8.90;99.90
9151;DHT22;4610;50.006;7.490;2023-02-19T16:03:46;8.90;99.90
9151;DHT22;4610;50.006;7.490;2023-02-19T16:06:16;8.90;99.90
9151;DHT22;4610;50.006;7.490;2023-02-19T16:08:57;8.80;99.90
9151;DHT22;4610;50.006;7.490;2023-02-19T16:11:28;8.80;99.90
9151;DHT22;4610;50.006;7.490;2023-02-19T16:14:17;8.80;99.90
9151;DHT22;4610;50.006;7.490;2023-02-19T16:16:46;8.80;99.90
9151;DHT22;4610;50.006;7.490;2023-02-19T16:19:22;8.70;99.90
9151;DHT22;4610;50.006;7.490;2023-02-19T16:21:52;8.70;99.90
9151;DHT22;4610;50.006;7.490;2023-02-19T16:24:26;8.70;99.90
9151;DHT22;4610;50.006;7.490;2023-02-19T16:26:53;8.60;99.90
9151;DHT22;4610;50.006;7.490;2023-02-19T16:29:22;8.60;99.90
9151;DHT22;4610;50.006;7.490;2023-02-19T16:31:51;8.50;99.90
9151;DHT22;4610;50.006;7.490;2023-02-19T16:34:30;8.40;99.90
9151;DHT22;4610;50.006;7.490;2023-02-19T16:37:01;8.40;99.90
9151;DHT22;4610;50.006;7.490;2023-02-19T16:39:28;8.40;99.90
9151;DHT22;4610;50.006;7.490;2023-02-19T16:42:16;8.30;99.90
9151;DHT22;4610;50.006;7.490;2023-02-19T16:44:45;8.20;99.90
9151;DHT22;4610;50.006;7.490;2023-02-19T16:47:25;8.20;99.90
9151;DHT22;4610;50.006;7.490;2023-02-19T16:49:52;8.10;99.90
9151;DHT22;4610;50.006;7.490;2023-02-19T16:52:21;8.00;99.90
9151;DHT22;4610;50.006;7.490;2023-02-19T16:54:48;7.90;99.90